sensor_id;sensor_type;location;lat;lon;timestamp;P1;durP1;ratioP1;P2;durP2;ratioP2
60867;SDS011;46702;48.370;10.794;2022-08-19T00:00:23;2.80;;;2.40;;
60867;SDS011;46702;48.370;10.794;2022-08-19T00:02:49;2.97;;;2.30;;
60867;SDS011;46702;48.370;10.794;2022-08-19T00:05:15;3.22;;;2.40;;
60867;SDS011;46702;48.370;10.794;2022-08-19T00:07:42;2.90;;;2.15;;
60867;SDS011;46702;48.370;10.794;2022-08-19T00:10:09;2.17;;;1.98;;
60867;SDS011;46702;48.370;10.794;2022-08-19T00:12:36;1.85;;;1.75;;
60867;SDS011;46702;48.370;10.794;2022-08-19T00:15:03;1.52;;;1.42;;
60867;SDS011;46702;48.370;10.794;2022-08-19T00:17:31;1.80;;;1.50;;
60867;SDS011;46702;48.370;10.794;2022-08-19T00:19:56;1.98;;;1.40;;
60867;SDS011;46702;48.370;10.794;2022-08-19T00:22:22;1.27;;;1.17;;
60867;SDS011;46702;48.370;10.794;2022-08-19T00:24:48;2.42;;;1.10;;
60867;SDS011;46702;48.370;10.794;2022-08-19T00:27:13;0.95;;;0.70;;
60867;SDS011;46702;48.370;10.794;2022-08-19T00:29:39;1.30;;;1.20;;
60867;SDS011;46702;48.370;10.794;2022-08-19T00:32:05;1.20;;;1.10;;
60867;SDS011;46702;48.370;10.794;2022-08-19T00:34:31;1.67;;;1.00;;
60867;SDS011;46702;48.370;10.794;2022-08-19T00:36:57;4.72;;;1.65;;
60867;SDS011;46702;48.370;10.794;2022-08-19T00:39:23;2.42;;;1.00;;
60867;SDS011;46702;48.370;10.794;2022-08-19T00:41:49;6.00;;;1.60;;
60867;SDS011;46702;48.370;10.794;2022-08-19T00:44:20;2.08;;;1.48;;
60867;SDS011;46702;48.370;10.794;2022-08-19T00:46:51;4.95;;;1.20;;
60867;SDS011;46702;48.370;10.794;2022-08-19T00:51:48;3.55;;;1.40;;
60867;SDS011;46702;48.370;10.794;2022-08-19T00:54:21;4.38;;;1.70;;
60867;SDS011;46702;48.370;10.794;2022-08-19T00:56:48;2.15;;;1.55;;
60867;SDS011;46702;48.370;10.794;2022-08-19T00:59:14;2.80;;;1.80;;
60867;SDS011;46702;48.370;10.794;2022-08-19T01:01:42;3.25;;;2.03;;
60867;SDS011;46702;48.370;10.794;2022-08-19T01:04:09;3.00;;;1.30;;
60867;SDS011;46702;48.370;10.794;2022-08-19T01:06:37;1.55;;;1.15;;
60867;SDS011;46702;48.370;10.794;2022-08-19T01:09:06;1.65;;;1.40;;
60867;SDS011;46702;48.370;10.794;2022-08-19T01:11:33;3.63;;;1.27;;
60867;SDS011;46702;48.370;10.794;2022-08-19T01:14:04;1.83;;;1.27;;
60867;SDS011;46702;48.370;10.794;2022-08-19T01:16:31;2.25;;;1.45;;
60867;SDS011;46702;48.370;10.794;2022-08-19T01:18:58;2.07;;;1.70;;
60867;SDS011;46702;48.370;10.794;2022-08-19T01:21:28;1.65;;;1.55;;
60867;SDS011;46702;48.370;10.794;2022-08-19T01:24:11;1.92;;;1.60;;
60867;SDS011;46702;48.370;10.794;2022-08-19T01:26:40;3.72;;;1.65;;
60867;SDS011;46702;48.370;10.794;2022-08-19T01:29:08;2.92;;;2.20;;
60867;SDS011;46702;48.370;10.794;2022-08-19T01:31:35;3.45;;;2.38;;
60867;SDS011;46702;48.370;10.794;2022-08-19T01:34:01;2.22;;;2.03;;
60867;SDS011;46702;48.370;10.794;2022-08-19T01:36:29;2.97;;;2.40;;
60867;SDS011;46702;48.370;10.794;2022-08-19T01:38:58;3.35;;;2.78;;
60867;SDS011;46702;48.370;10.794;2022-08-19T01:41:25;4.13;;;3.28;;
60867;SDS011;46702;48.370;10.794;2022-08-19T01:43:52;3.53;;;2.75;;
60867;SDS011;46702;48.370;10.794;2022-08-19T01:46:18;3.70;;;3.00;;
60867;SDS011;46702;48.370;10.794;2022-08-19T01:48:45;4.82;;;2.80;;
60867;SDS011;46702;48.370;10.794;2022-08-19T01:51:11;3.47;;;2.90;;
60867;SDS011;46702;48.370;10.794;2022-08-19T01:53:38;3.13;;;2.80;;
60867;SDS011;46702;48.370;10.794;2022-08-19T01:56:04;3.65;;;2.80;;
60867;SDS011;46702;48.370;10.794;2022-08-19T01:58:34;6.72;;;5.32;;
60867;SDS011;46702;48.370;10.794;2022-08-19T02:01:06;5.97;;;5.38;;
60867;SDS011;46702;48.370;10.794;2022-08-19T02:03:33;6.10;;;4.80;;
60867;SDS011;46702;48.370;10.794;2022-08-19T02:06:02;6.50;;;4.97;;
60867;SDS011;46702;48.370;10.794;2022-08-19T02:08:30;7.18;;;5.30;;
60867;SDS011;46702;48.370;10.794;2022-08-19T02:10:57;5.28;;;4.50;;
60867;SDS011;46702;48.370;10.794;2022-08-19T02:13:23;6.13;;;4.22;;
60867;SDS011;46702;48.370;10.794;2022-08-19T02:15:49;7.72;;;5.13;;
60867;SDS011;46702;48.370;10.794;2022-08-19T02:18:15;6.53;;;5.22;;
60867;SDS011;46702;48.370;10.794;2022-08-19T02:20:41;8.18;;;6.38;;
60867;SDS011;46702;48.370;10.794;2022-08-19T02:23:08;6.60;;;5.43;;
60867;SDS011;46702;48.370;10.794;2022-08-19T02:25:35;10.57;;;7.15;;
60867;SDS011;46702;48.370;10.794;2022-08-19T02:28:01;8.38;;;6.70;;
60867;SDS011;46702;48.370;10.794;2022-08-19T02:30:27;11.45;;;8.10;;
60867;SDS011;46702;48.370;10.794;2022-08-19T02:32:52;11.10;;;8.27;;
60867;SDS011;46702;48.370;10.794;2022-08-19T02:35:18;11.32;;;8.80;;
60867;SDS011;46702;48.370;10.794;2022-08-19T02:37:45;11.95;;;8.60;;
60867;SDS011;46702;48.370;10.794;2022-08-19T02:40:30;13.98;;;9.80;;
60867;SDS011;46702;48.370;10.794;2022-08-19T02:43:00;14.82;;;9.88;;
60867;SDS011;46702;48.370;10.794;2022-08-19T02:45:27;13.30;;;9.20;;
60867;SDS011;46702;48.370;10.794;2022-08-19T02:47:56;13.48;;;10.35;;
60867;SDS011;46702;48.370;10.794;2022-08-19T02:50:22;16.08;;;10.77;;
60867;SDS011;46702;48.370;10.794;2022-08-19T02:52:47;16.45;;;9.95;;
60867;SDS011;46702;48.370;10.794;2022-08-19T02:55:13;15.70;;;11.48;;
60867;SDS011;46702;48.370;10.794;2022-08-19T02:57:40;15.27;;;10.85;;
60867;SDS011;46702;48.370;10.794;2022-08-19T03:00:07;17.45;;;11.93;;
60867;SDS011;46702;48.370;10.794;2022-08-19T03:02:37;15.07;;;10.73;;
60867;SDS011;46702;48.370;10.794;2022-08-19T03:05:03;17.15;;;11.27;;
60867;SDS011;46702;48.370;10.794;2022-08-19T03:07:30;17.50;;;12.50;;
60867;SDS011;46702;48.370;10.794;2022-08-19T03:09:56;17.92;;;11.52;;
60867;SDS011;46702;48.370;10.794;2022-08-19T03:12:21;17.38;;;11.95;;
60867;SDS011;46702;48.370;10.794;2022-08-19T03:14:47;17.30;;;12.07;;
60867;SDS011;46702;48.370;10.794;2022-08-19T03:17:13;17.10;;;12.18;;
60867;SDS011;46702;48.370;10.794;2022-08-19T03:19:39;18.35;;;12.25;;
60867;SDS011;46702;48.370;10.794;2022-08-19T03:22:05;17.85;;;11.65;;
60867;SDS011;46702;48.370;10.794;2022-08-19T03:24:31;18.92;;;12.52;;
60867;SDS011;46702;48.370;10.794;2022-08-19T03:26:57;17.42;;;11.55;;
60867;SDS011;46702;48.370;10.794;2022-08-19T03:29:24;18.77;;;12.10;;
60867;SDS011;46702;48.370;10.794;2022-08-19T03:31:52;18.52;;;12.90;;
60867;SDS011;46702;48.370;10.794;2022-08-19T03:34:24;20.33;;;13.93;;
60867;SDS011;46702;48.370;10.794;2022-08-19T03:36:53;21.35;;;13.70;;
60867;SDS011;46702;48.370;10.794;2022-08-19T03:41:48;21.35;;;13.20;;
60867;SDS011;46702;48.370;10.794;2022-08-19T03:44:18;20.70;;;12.65;;
60867;SDS011;46702;48.370;10.794;2022-08-19T03:46:52;18.90;;;12.70;;
60867;SDS011;46702;48.370;10.794;2022-08-19T03:49:20;18.65;;;13.55;;
60867;SDS011;46702;48.370;10.794;2022-08-19T03:51:47;20.25;;;13.50;;
60867;SDS011;46702;48.370;10.794;2022-08-19T03:54:15;18.67;;;13.55;;
60867;SDS011;46702;48.370;10.794;2022-08-19T03:56:43;18.95;;;13.45;;
60867;SDS011;46702;48.370;10.794;2022-08-19T03:59:12;24.15;;;13.77;;
60867;SDS011;46702;48.370;10.794;2022-08-19T04:01:41;20.67;;;13.73;;
60867;SDS011;46702;48.370;10.794;2022-08-19T04:04:07;21.27;;;14.20;;
60867;SDS011;46702;48.370;10.794;2022-08-19T04:06:34;20.88;;;13.35;;
60867;SDS011;46702;48.370;10.794;2022-08-19T04:09:03;19.98;;;13.65;;
60867;SDS011;46702;48.370;10.794;2022-08-19T04:11:33;17.52;;;12.75;;
60867;SDS011;46702;48.370;10.794;2022-08-19T04:14:06;18.60;;;13.18;;
60867;SDS011;46702;48.370;10.794;2022-08-19T04:16:33;16.10;;;11.15;;
60867;SDS011;46702;48.370;10.794;2022-08-19T04:19:00;18.23;;;12.77;;
60867;SDS011;46702;48.370;10.794;2022-08-19T04:21:27;21.00;;;13.55;;
60867;SDS011;46702;48.370;10.794;2022-08-19T04:23:54;18.63;;;12.82;;
60867;SDS011;46702;48.370;10.794;2022-08-19T04:26:27;20.03;;;13.30;;
60867;SDS011;46702;48.370;10.794;2022-08-19T04:28:57;18.40;;;12.30;;
60867;SDS011;46702;48.370;10.794;2022-08-19T04:31:27;17.00;;;11.65;;
60867;SDS011;46702;48.370;10.794;2022-08-19T04:33:55;17.90;;;11.90;;
60867;SDS011;46702;48.370;10.794;2022-08-19T04:36:24;17.38;;;11.13;;
60867;SDS011;46702;48.370;10.794;2022-08-19T04:38:59;14.70;;;9.70;;
60867;SDS011;46702;48.370;10.794;2022-08-19T04:41:27;16.75;;;11.38;;
60867;SDS011;46702;48.370;10.794;2022-08-19T04:44:13;14.40;;;10.55;;
60867;SDS011;46702;48.370;10.794;2022-08-19T04:46:39;15.30;;;9.50;;
60867;SDS011;46702;48.370;10.794;2022-08-19T04:49:05;17.00;;;11.38;;
60867;SDS011;46702;48.370;10.794;2022-08-19T04:51:33;18.25;;;11.50;;
60867;SDS011;46702;48.370;10.794;2022-08-19T04:54:00;16.30;;;11.10;;
60867;SDS011;46702;48.370;10.794;2022-08-19T04:56:28;15.55;;;10.77;;
60867;SDS011;46702;48.370;10.794;2022-08-19T04:58:54;15.98;;;11.05;;
60867;SDS011;46702;48.370;10.794;2022-08-19T05:01:24;14.68;;;10.73;;
60867;SDS011;46702;48.370;10.794;2022-08-19T05:03:53;15.00;;;10.15;;
60867;SDS011;46702;48.370;10.794;2022-08-19T05:06:20;13.07;;;9.05;;
60867;SDS011;46702;48.370;10.794;2022-08-19T05:08:46;14.77;;;9.65;;
60867;SDS011;46702;48.370;10.794;2022-08-19T05:11:16;12.45;;;8.98;;
60867;SDS011;46702;48.370;10.794;2022-08-19T05:13:45;12.40;;;8.43;;
60867;SDS011;46702;48.370;10.794;2022-08-19T05:16:13;11.00;;;7.85;;
60867;SDS011;46702;48.370;10.794;2022-08-19T05:18:40;13.47;;;8.20;;
60867;SDS011;46702;48.370;10.794;2022-08-19T05:21:25;12.82;;;8.30;;
60867;SDS011;46702;48.370;10.794;2022-08-19T05:24:10;11.48;;;8.13;;
60867;SDS011;46702;48.370;10.794;2022-08-19T05:26:38;12.20;;;8.70;;
60867;SDS011;46702;48.370;10.794;2022-08-19T05:29:06;13.23;;;9.02;;
60867;SDS011;46702;48.370;10.794;2022-08-19T05:31:33;12.52;;;8.45;;
60867;SDS011;46702;48.370;10.794;2022-08-19T05:34:00;14.32;;;9.55;;
60867;SDS011;46702;48.370;10.794;2022-08-19T05:36:26;12.88;;;9.25;;
60867;SDS011;46702;48.370;10.794;2022-08-19T05:38:53;12.20;;;8.35;;
60867;SDS011;46702;48.370;10.794;2022-08-19T05:41:19;13.05;;;8.50;;
60867;SDS011;46702;48.370;10.794;2022-08-19T05:43:45;11.98;;;8.65;;
60867;SDS011;46702;48.370;10.794;2022-08-19T05:46:16;13.43;;;9.43;;
60867;SDS011;46702;48.370;10.794;2022-08-19T05:48:43;12.90;;;9.00;;
60867;SDS011;46702;48.370;10.794;2022-08-19T05:51:09;13.93;;;9.43;;
60867;SDS011;46702;48.370;10.794;2022-08-19T05:53:36;17.98;;;10.43;;
60867;SDS011;46702;48.370;10.794;2022-08-19T05:56:05;15.50;;;9.85;;
60867;SDS011;46702;48.370;10.794;2022-08-19T05:58:36;16.55;;;10.75;;
60867;SDS011;46702;48.370;10.794;2022-08-19T06:01:03;19.55;;;11.65;;
60867;SDS011;46702;48.370;10.794;2022-08-19T06:03:34;18.42;;;12.13;;
60867;SDS011;46702;48.370;10.794;2022-08-19T06:06:05;15.57;;;10.93;;
60867;SDS011;46702;48.370;10.794;2022-08-19T06:08:33;18.00;;;11.38;;
60867;SDS011;46702;48.370;10.794;2022-08-19T06:13:48;17.33;;;11.70;;
60867;SDS011;46702;48.370;10.794;2022-08-19T06:16:20;14.63;;;10.05;;
60867;SDS011;46702;48.370;10.794;2022-08-19T06:18:48;17.85;;;11.15;;
60867;SDS011;46702;48.370;10.794;2022-08-19T06:21:19;15.70;;;10.23;;
60867;SDS011;46702;48.370;10.794;2022-08-19T06:26:12;17.45;;;10.75;;
60867;SDS011;46702;48.370;10.794;2022-08-19T06:28:40;19.05;;;11.63;;
60867;SDS011;46702;48.370;10.794;2022-08-19T06:31:17;17.27;;;11.45;;
60867;SDS011;46702;48.370;10.794;2022-08-19T06:33:46;18.02;;;11.63;;
60867;SDS011;46702;48.370;10.794;2022-08-19T06:36:26;19.65;;;13.13;;
60867;SDS011;46702;48.370;10.794;2022-08-19T06:38:57;16.73;;;11.18;;
60867;SDS011;46702;48.370;10.794;2022-08-19T06:41:27;16.75;;;10.77;;
60867;SDS011;46702;48.370;10.794;2022-08-19T06:43:53;18.23;;;11.73;;
60867;SDS011;46702;48.370;10.794;2022-08-19T06:46:20;18.30;;;12.05;;
60867;SDS011;46702;48.370;10.794;2022-08-19T06:48:46;18.00;;;11.93;;
60867;SDS011;46702;48.370;10.794;2022-08-19T06:51:13;19.60;;;11.55;;
60867;SDS011;46702;48.370;10.794;2022-08-19T06:53:41;19.58;;;12.57;;
60867;SDS011;46702;48.370;10.794;2022-08-19T06:56:11;18.88;;;12.68;;
60867;SDS011;46702;48.370;10.794;2022-08-19T06:58:58;17.85;;;11.45;;
60867;SDS011;46702;48.370;10.794;2022-08-19T07:01:24;21.23;;;12.57;;
60867;SDS011;46702;48.370;10.794;2022-08-19T07:03:49;20.38;;;13.50;;
60867;SDS011;46702;48.370;10.794;2022-08-19T07:06:16;19.83;;;12.48;;
60867;SDS011;46702;48.370;10.794;2022-08-19T07:08:45;19.90;;;12.13;;
60867;SDS011;46702;48.370;10.794;2022-08-19T07:11:14;20.92;;;12.98;;
60867;SDS011;46702;48.370;10.794;2022-08-19T07:13:42;20.80;;;13.25;;
60867;SDS011;46702;48.370;10.794;2022-08-19T07:16:11;20.73;;;12.18;;
60867;SDS011;46702;48.370;10.794;2022-08-19T07:18:39;21.50;;;13.38;;
60867;SDS011;46702;48.370;10.794;2022-08-19T07:21:16;20.27;;;13.63;;
60867;SDS011;46702;48.370;10.794;2022-08-19T07:23:44;20.67;;;12.48;;
60867;SDS011;46702;48.370;10.794;2022-08-19T07:26:54;21.17;;;11.70;;
60867;SDS011;46702;48.370;10.794;2022-08-19T07:29:04;19.88;;;12.82;;
60867;SDS011;46702;48.370;10.794;2022-08-19T07:31:31;21.87;;;14.00;;
60867;SDS011;46702;48.370;10.794;2022-08-19T07:34:01;22.67;;;14.35;;
60867;SDS011;46702;48.370;10.794;2022-08-19T07:36:28;27.83;;;17.08;;
60867;SDS011;46702;48.370;10.794;2022-08-19T07:38:56;23.42;;;14.30;;
60867;SDS011;46702;48.370;10.794;2022-08-19T07:41:23;23.20;;;13.10;;
60867;SDS011;46702;48.370;10.794;2022-08-19T07:43:51;27.95;;;14.80;;
60867;SDS011;46702;48.370;10.794;2022-08-19T07:46:18;26.23;;;15.25;;
60867;SDS011;46702;48.370;10.794;2022-08-19T07:48:45;28.05;;;16.08;;
60867;SDS011;46702;48.370;10.794;2022-08-19T07:51:15;26.92;;;15.15;;
60867;SDS011;46702;48.370;10.794;2022-08-19T07:53:42;27.35;;;15.88;;
60867;SDS011;46702;48.370;10.794;2022-08-19T07:56:10;28.20;;;16.42;;
60867;SDS011;46702;48.370;10.794;2022-08-19T07:58:38;29.50;;;16.65;;
60867;SDS011;46702;48.370;10.794;2022-08-19T08:01:07;27.02;;;16.35;;
60867;SDS011;46702;48.370;10.794;2022-08-19T08:03:35;32.78;;;17.25;;
60867;SDS011;46702;48.370;10.794;2022-08-19T08:06:21;31.77;;;17.73;;
60867;SDS011;46702;48.370;10.794;2022-08-19T08:09:06;33.40;;;17.55;;
60867;SDS011;46702;48.370;10.794;2022-08-19T08:11:36;31.98;;;17.95;;
60867;SDS011;46702;48.370;10.794;2022-08-19T08:14:02;30.00;;;17.13;;
60867;SDS011;46702;48.370;10.794;2022-08-19T08:16:33;26.92;;;16.70;;
60867;SDS011;46702;48.370;10.794;2022-08-19T08:19:00;31.38;;;16.92;;
60867;SDS011;46702;48.370;10.794;2022-08-19T08:21:26;31.60;;;18.05;;
60867;SDS011;46702;48.370;10.794;2022-08-19T08:23:51;32.55;;;16.15;;
60867;SDS011;46702;48.370;10.794;2022-08-19T08:26:20;24.63;;;15.18;;
60867;SDS011;46702;48.370;10.794;2022-08-19T08:28:46;28.02;;;15.05;;
60867;SDS011;46702;48.370;10.794;2022-08-19T08:31:13;26.65;;;15.98;;
60867;SDS011;46702;48.370;10.794;2022-08-19T08:33:39;24.77;;;15.20;;
60867;SDS011;46702;48.370;10.794;2022-08-19T08:36:07;29.03;;;16.23;;
60867;SDS011;46702;48.370;10.794;2022-08-19T08:38:33;27.50;;;15.27;;
60867;SDS011;46702;48.370;10.794;2022-08-19T08:41:01;25.92;;;15.30;;
60867;SDS011;46702;48.370;10.794;2022-08-19T08:43:36;24.17;;;14.68;;
60867;SDS011;46702;48.370;10.794;2022-08-19T08:48:52;27.48;;;15.52;;
60867;SDS011;46702;48.370;10.794;2022-08-19T08:51:24;28.45;;;15.70;;
60867;SDS011;46702;48.370;10.794;2022-08-19T08:54:00;26.58;;;15.02;;
60867;SDS011;46702;48.370;10.794;2022-08-19T08:56:29;29.08;;;15.90;;
60867;SDS011;46702;48.370;10.794;2022-08-19T08:59:03;30.00;;;17.08;;
60867;SDS011;46702;48.370;10.794;2022-08-19T09:01:33;30.20;;;16.63;;
60867;SDS011;46702;48.370;10.794;2022-08-19T09:03:59;31.38;;;16.15;;
60867;SDS011;46702;48.370;10.794;2022-08-19T09:06:48;28.45;;;16.73;;
60867;SDS011;46702;48.370;10.794;2022-08-19T09:17:28;30.65;;;16.98;;
60867;SDS011;46702;48.370;10.794;2022-08-19T09:20:14;29.95;;;16.42;;
60867;SDS011;46702;48.370;10.794;2022-08-19T09:22:42;31.95;;;17.63;;
60867;SDS011;46702;48.370;10.794;2022-08-19T09:25:10;34.47;;;17.17;;
60867;SDS011;46702;48.370;10.794;2022-08-19T09:27:37;31.67;;;17.55;;
60867;SDS011;46702;48.370;10.794;2022-08-19T09:30:05;31.20;;;18.35;;
60867;SDS011;46702;48.370;10.794;2022-08-19T09:32:33;30.95;;;16.90;;
60867;SDS011;46702;48.370;10.794;2022-08-19T09:35:00;35.78;;;17.65;;
60867;SDS011;46702;48.370;10.794;2022-08-19T09:37:26;29.83;;;17.48;;
60867;SDS011;46702;48.370;10.794;2022-08-19T09:39:53;30.88;;;17.70;;
60867;SDS011;46702;48.370;10.794;2022-08-19T09:42:19;32.80;;;17.33;;
60867;SDS011;46702;48.370;10.794;2022-08-19T09:44:45;32.33;;;17.42;;
60867;SDS011;46702;48.370;10.794;2022-08-19T09:47:12;32.35;;;17.08;;
60867;SDS011;46702;48.370;10.794;2022-08-19T09:49:39;35.60;;;18.53;;
60867;SDS011;46702;48.370;10.794;2022-08-19T09:52:06;36.80;;;19.00;;
60867;SDS011;46702;48.370;10.794;2022-08-19T09:54:34;33.33;;;17.70;;
60867;SDS011;46702;48.370;10.794;2022-08-19T09:57:00;34.72;;;18.50;;
60867;SDS011;46702;48.370;10.794;2022-08-19T09:59:26;35.70;;;19.15;;
60867;SDS011;46702;48.370;10.794;2022-08-19T10:01:52;36.00;;;18.15;;
60867;SDS011;46702;48.370;10.794;2022-08-19T10:04:19;34.90;;;18.48;;
60867;SDS011;46702;48.370;10.794;2022-08-19T10:06:46;33.85;;;18.30;;
60867;SDS011;46702;48.370;10.794;2022-08-19T10:09:14;35.05;;;17.85;;
60867;SDS011;46702;48.370;10.794;2022-08-19T10:11:42;34.50;;;18.73;;
60867;SDS011;46702;48.370;10.794;2022-08-19T10:14:11;32.30;;;17.25;;
60867;SDS011;46702;48.370;10.794;2022-08-19T10:16:40;30.45;;;17.83;;
60867;SDS011;46702;48.370;10.794;2022-08-19T10:19:06;33.55;;;17.42;;
60867;SDS011;46702;48.370;10.794;2022-08-19T10:21:34;30.90;;;15.98;;
60867;SDS011;46702;48.370;10.794;2022-08-19T10:24:00;31.55;;;17.20;;
60867;SDS011;46702;48.370;10.794;2022-08-19T10:26:30;31.77;;;17.63;;
60867;SDS011;46702;48.370;10.794;2022-08-19T10:28:58;31.52;;;17.60;;
60867;SDS011;46702;48.370;10.794;2022-08-19T10:31:26;34.30;;;17.88;;
60867;SDS011;46702;48.370;10.794;2022-08-19T10:33:53;33.08;;;17.52;;
60867;SDS011;46702;48.370;10.794;2022-08-19T10:36:23;28.77;;;15.50;;
60867;SDS011;46702;48.370;10.794;2022-08-19T10:38:52;28.30;;;16.35;;
60867;SDS011;46702;48.370;10.794;2022-08-19T10:41:23;30.67;;;16.00;;
60867;SDS011;46702;48.370;10.794;2022-08-19T10:43:51;32.03;;;16.58;;
60867;SDS011;46702;48.370;10.794;2022-08-19T10:48:46;25.47;;;14.70;;
60867;SDS011;46702;48.370;10.794;2022-08-19T10:51:12;28.23;;;14.85;;
60867;SDS011;46702;48.370;10.794;2022-08-19T10:54:01;30.05;;;16.58;;
60867;SDS011;46702;48.370;10.794;2022-08-19T10:56:27;28.50;;;16.42;;
60867;SDS011;46702;48.370;10.794;2022-08-19T10:59:12;29.00;;;15.88;;
60867;SDS011;46702;48.370;10.794;2022-08-19T11:01:39;28.92;;;15.93;;
60867;SDS011;46702;48.370;10.794;2022-08-19T11:04:06;27.97;;;15.70;;
60867;SDS011;46702;48.370;10.794;2022-08-19T11:06:35;22.40;;;13.48;;
60867;SDS011;46702;48.370;10.794;2022-08-19T11:09:02;25.85;;;14.25;;
60867;SDS011;46702;48.370;10.794;2022-08-19T11:11:29;23.67;;;13.52;;
60867;SDS011;46702;48.370;10.794;2022-08-19T11:13:55;24.98;;;13.88;;
60867;SDS011;46702;48.370;10.794;2022-08-19T11:16:22;27.73;;;13.82;;
60867;SDS011;46702;48.370;10.794;2022-08-19T11:18:52;24.65;;;13.13;;
60867;SDS011;46702;48.370;10.794;2022-08-19T11:21:23;13.52;;;8.70;;
60867;SDS011;46702;48.370;10.794;2022-08-19T11:23:52;14.32;;;7.95;;
60867;SDS011;46702;48.370;10.794;2022-08-19T11:26:22;10.77;;;7.50;;
60867;SDS011;46702;48.370;10.794;2022-08-19T11:28:49;10.13;;;5.45;;
60867;SDS011;46702;48.370;10.794;2022-08-19T11:31:20;8.60;;;5.30;;
60867;SDS011;46702;48.370;10.794;2022-08-19T11:33:48;8.52;;;5.95;;
60867;SDS011;46702;48.370;10.794;2022-08-19T11:36:18;8.15;;;6.00;;
60867;SDS011;46702;48.370;10.794;2022-08-19T11:38:48;11.82;;;7.07;;
60867;SDS011;46702;48.370;10.794;2022-08-19T11:41:15;9.77;;;6.15;;
60867;SDS011;46702;48.370;10.794;2022-08-19T11:43:43;9.10;;;6.20;;
60867;SDS011;46702;48.370;10.794;2022-08-19T11:46:11;10.35;;;6.78;;
60867;SDS011;46702;48.370;10.794;2022-08-19T11:48:39;9.68;;;6.35;;
60867;SDS011;46702;48.370;10.794;2022-08-19T11:51:08;9.95;;;6.45;;
60867;SDS011;46702;48.370;10.794;2022-08-19T11:53:36;10.40;;;6.68;;
60867;SDS011;46702;48.370;10.794;2022-08-19T11:56:03;9.95;;;6.63;;
60867;SDS011;46702;48.370;10.794;2022-08-19T11:58:32;10.88;;;6.40;;
60867;SDS011;46702;48.370;10.794;2022-08-19T12:00:59;11.00;;;6.18;;
60867;SDS011;46702;48.370;10.794;2022-08-19T12:03:25;7.97;;;5.45;;
60867;SDS011;46702;48.370;10.794;2022-08-19T12:05:52;8.73;;;5.78;;
60867;SDS011;46702;48.370;10.794;2022-08-19T12:08:18;7.22;;;5.50;;
60867;SDS011;46702;48.370;10.794;2022-08-19T12:10:44;8.20;;;5.63;;
60867;SDS011;46702;48.370;10.794;2022-08-19T12:13:11;8.02;;;5.60;;
60867;SDS011;46702;48.370;10.794;2022-08-19T12:15:40;6.70;;;4.97;;
60867;SDS011;46702;48.370;10.794;2022-08-19T12:18:07;5.47;;;4.53;;
60867;SDS011;46702;48.370;10.794;2022-08-19T12:20:35;5.32;;;3.63;;
60867;SDS011;46702;48.370;10.794;2022-08-19T12:23:03;5.80;;;4.25;;
60867;SDS011;46702;48.370;10.794;2022-08-19T12:25:29;6.70;;;4.80;;
60867;SDS011;46702;48.370;10.794;2022-08-19T12:27:55;6.43;;;4.60;;
60867;SDS011;46702;48.370;10.794;2022-08-19T12:30:21;6.43;;;4.95;;
60867;SDS011;46702;48.370;10.794;2022-08-19T12:32:47;8.00;;;5.45;;
60867;SDS011;46702;48.370;10.794;2022-08-19T12:35:13;11.27;;;6.40;;
60867;SDS011;46702;48.370;10.794;2022-08-19T12:37:39;10.13;;;6.93;;
60867;SDS011;46702;48.370;10.794;2022-08-19T12:40:07;10.18;;;6.90;;
60867;SDS011;46702;48.370;10.794;2022-08-19T12:42:33;10.55;;;6.47;;
60867;SDS011;46702;48.370;10.794;2022-08-19T12:44:59;9.32;;;6.72;;
60867;SDS011;46702;48.370;10.794;2022-08-19T12:47:26;9.70;;;6.18;;
60867;SDS011;46702;48.370;10.794;2022-08-19T12:49:51;8.25;;;6.00;;
60867;SDS011;46702;48.370;10.794;2022-08-19T12:52:17;9.90;;;6.68;;
60867;SDS011;46702;48.370;10.794;2022-08-19T12:54:46;10.38;;;7.40;;
60867;SDS011;46702;48.370;10.794;2022-08-19T12:57:12;10.77;;;7.78;;
60867;SDS011;46702;48.370;10.794;2022-08-19T12:59:38;12.05;;;7.50;;
60867;SDS011;46702;48.370;10.794;2022-08-19T13:02:05;11.00;;;8.05;;
60867;SDS011;46702;48.370;10.794;2022-08-19T13:04:32;9.40;;;6.47;;
60867;SDS011;46702;48.370;10.794;2022-08-19T13:07:05;7.57;;;6.20;;
60867;SDS011;46702;48.370;10.794;2022-08-19T13:09:31;10.07;;;6.70;;
60867;SDS011;46702;48.370;10.794;2022-08-19T13:11:57;10.98;;;7.18;;
60867;SDS011;46702;48.370;10.794;2022-08-19T13:14:23;9.98;;;6.90;;
60867;SDS011;46702;48.370;10.794;2022-08-19T13:16:48;9.95;;;6.85;;
60867;SDS011;46702;48.370;10.794;2022-08-19T13:19:14;8.82;;;6.80;;
60867;SDS011;46702;48.370;10.794;2022-08-19T13:21:40;9.90;;;7.30;;
60867;SDS011;46702;48.370;10.794;2022-08-19T13:24:05;8.88;;;6.88;;
60867;SDS011;46702;48.370;10.794;2022-08-19T13:26:31;10.73;;;6.88;;
60867;SDS011;46702;48.370;10.794;2022-08-19T13:28:57;10.73;;;7.00;;
60867;SDS011;46702;48.370;10.794;2022-08-19T13:31:42;9.95;;;7.65;;
60867;SDS011;46702;48.370;10.794;2022-08-19T13:34:28;10.98;;;7.70;;
60867;SDS011;46702;48.370;10.794;2022-08-19T13:36:57;12.52;;;8.48;;
60867;SDS011;46702;48.370;10.794;2022-08-19T13:39:23;14.23;;;9.05;;
60867;SDS011;46702;48.370;10.794;2022-08-19T13:41:49;14.45;;;9.45;;
60867;SDS011;46702;48.370;10.794;2022-08-19T13:44:16;17.55;;;10.50;;
60867;SDS011;46702;48.370;10.794;2022-08-19T13:46:43;16.40;;;11.25;;
60867;SDS011;46702;48.370;10.794;2022-08-19T13:49:13;14.27;;;10.00;;
60867;SDS011;46702;48.370;10.794;2022-08-19T13:51:39;15.45;;;9.57;;
60867;SDS011;46702;48.370;10.794;2022-08-19T13:54:06;14.30;;;9.90;;
60867;SDS011;46702;48.370;10.794;2022-08-19T13:56:33;14.40;;;8.82;;
60867;SDS011;46702;48.370;10.794;2022-08-19T13:59:00;15.90;;;10.80;;
60867;SDS011;46702;48.370;10.794;2022-08-19T14:01:26;14.57;;;9.88;;
60867;SDS011;46702;48.370;10.794;2022-08-19T14:03:52;15.63;;;9.70;;
60867;SDS011;46702;48.370;10.794;2022-08-19T14:06:18;14.73;;;10.30;;
60867;SDS011;46702;48.370;10.794;2022-08-19T14:08:45;15.85;;;10.48;;
60867;SDS011;46702;48.370;10.794;2022-08-19T14:11:11;16.92;;;10.85;;
60867;SDS011;46702;48.370;10.794;2022-08-19T14:13:37;11.43;;;7.50;;
60867;SDS011;46702;48.370;10.794;2022-08-19T14:16:09;15.48;;;10.30;;
60867;SDS011;46702;48.370;10.794;2022-08-19T14:18:36;14.52;;;10.02;;
60867;SDS011;46702;48.370;10.794;2022-08-19T14:21:02;15.63;;;9.73;;
60867;SDS011;46702;48.370;10.794;2022-08-19T14:23:30;15.60;;;9.93;;
60867;SDS011;46702;48.370;10.794;2022-08-19T14:26:04;15.00;;;9.70;;
60867;SDS011;46702;48.370;10.794;2022-08-19T14:28:35;15.10;;;9.18;;
60867;SDS011;46702;48.370;10.794;2022-08-19T14:31:00;15.35;;;9.85;;
60867;SDS011;46702;48.370;10.794;2022-08-19T14:33:26;15.63;;;10.10;;
60867;SDS011;46702;48.370;10.794;2022-08-19T14:35:52;15.07;;;9.70;;
60867;SDS011;46702;48.370;10.794;2022-08-19T14:38:18;16.20;;;10.40;;
60867;SDS011;46702;48.370;10.794;2022-08-19T14:40:44;17.75;;;11.52;;
60867;SDS011;46702;48.370;10.794;2022-08-19T14:43:10;16.15;;;10.68;;
60867;SDS011;46702;48.370;10.794;2022-08-19T14:45:37;17.33;;;11.20;;
60867;SDS011;46702;48.370;10.794;2022-08-19T14:48:05;17.97;;;10.77;;